Time;durP1;ratioP1;P1;durP2;ratioP2;P2;SDS_P1;SDS_P2;PMS_P1;PMS_P2;Temp;Humidity;BMP_temperature;BMP_pressure;BME280_temperature;BME280_humidity;BME280_pressure;Samples;Min_cycle;Max_cycle;Signal;HPM_P1;HPM_P2
2024/03/13 00:01:22;;;;;;;98.65;10.45;;;11.00;99.90;;;;;;10552236;27;20056;-59
2024/03/13 00:06:24;;;;;;;109.25;14.85;;;10.90;99.90;;;;;;10561845;27;20123;-57
2024/03/13 00:11:27;;;;;;;98.32;10.50;;;10.80;99.90;;;;;;10555896;27;20056;-58
2024/03/13 00:16:31;;;;;;;;;;;10.90;99.90;;;;;;10554308;28;20107;-57
2024/03/13 00:21:35;;;;;;;64.53;9.63;;;11.10;99.90;;;;;;10559095;28;19934;-58
2024/03/13 00:26:37;;;;;;;75.63;10.88;;;11.00;99.90;;;;;;10556016;28;20126;-58
2024/03/13 00:31:44;;;;;;;75.43;9.45;;;10.90;99.90;;;;;;10563244;27;20862;-58
2024/03/13 00:36:46;;;;;;;63.95;9.68;;;11.00;99.90;;;;;;10560486;27;20131;-57
2024/03/13 00:41:48;;;;;;;65.22;9.13;;;11.30;99.90;;;;;;10566105;27;20100;-58
2024/03/13 00:46:51;;;;;;;66.30;10.40;;;11.30;99.90;;;;;;10560829;27;20100;-59
2024/03/13 00:51:54;;;;;;;86.10;11.63;;;11.00;99.90;;;;;;10570153;27;20672;-57
2024/03/13 00:56:57;;;;;;;75.95;12.52;;;11.20;99.90;;;;;;10559631;27;20051;-58
2024/03/13 01:02:01;;;;;;;;;;;11.00;99.90;;;;;;10556084;27;20044;-60
2024/03/13 01:07:06;;;;;;;66.95;10.15;;;10.80;99.90;;;;;;10565006;27;19934;-58
2024/03/13 01:12:08;;;;;;;86.68;11.65;;;10.90;99.90;;;;;;10567083;27;20058;-59
2024/03/13 01:17:12;;;;;;;86.97;12.27;;;10.70;99.90;;;;;;10593717;27;20049;-59
2024/03/13 01:22:17;;;;;;;62.30;11.10;;;10.60;99.90;;;;;;10591910;27;20473;-58
2024/03/13 01:27:20;;;;;;;79.38;13.85;;;10.70;99.90;;;;;;10594194;27;20051;-58
2024/03/13 01:32:25;;;;;;;;;;;10.70;99.90;;;;;;10594587;27;20050;-57
2024/03/13 01:59:09;;;;;;;93.00;15.02;;;10.60;99.90;;;;;;10417714;28;20248;-58
2024/03/13 02:04:13;;;;;;;92.97;16.20;;;10.60;99.90;;;;;;10553509;27;20917;-58
2024/03/13 02:09:15;;;;;;;83.00;16.25;;;10.50;99.90;;;;;;10592341;27;20799;-59
2024/03/13 02:14:17;;;;;;;74.50;15.80;;;10.50;99.90;;;;;;10592734;27;20455;-58
2024/03/13 02:19:21;;;;;;;59.33;12.20;;;10.50;99.90;;;;;;10592011;27;20124;-57
2024/03/13 02:24:24;;;;;;;68.97;11.55;;;10.40;99.90;;;;;;10592649;27;20047;-56
2024/03/13 02:29:26;;;;;;;63.00;11.70;;;10.70;99.90;;;;;;10564465;27;20043;-55
2024/03/13 02:34:29;;;;;;;79.20;12.63;;;10.80;99.90;;;;;;10561767;27;20050;-58
2024/03/13 02:39:31;;;;;;;74.68;14.88;;;10.60;99.90;;;;;;10590332;27;20047;-60
2024/03/13 02:44:34;;;;;;;53.97;10.03;;;10.70;99.90;;;;;;10553755;27;20058;-58
2024/03/13 02:49:36;;;;;;;55.77;9.27;;;10.60;99.90;;;;;;10563437;27;20051;-57
2024/03/13 02:54:38;;;;;;;50.00;8.15;;;10.60;99.90;;;;;;10568164;27;20054;-59
2024/03/13 02:59:41;;;;;;;62.20;10.20;;;10.90;99.90;;;;;;10572815;27;20043;-58
2024/03/13 03:04:43;;;;;;;49.22;6.65;;;10.90;99.90;;;;;;10565356;27;20426;-60
2024/03/13 03:09:45;;;;;;;46.50;7.53;;;11.10;99.90;;;;;;10560141;27;20522;-58
2024/03/13 03:14:47;;;;;;;39.53;5.53;;;10.80;99.90;;;;;;10536378;28;20089;-57
2024/03/13 03:19:51;;;;;;;34.08;5.70;;;10.90;99.90;;;;;;10546779;28;20055;-58
2024/03/13 03:24:55;;;;;;;60.30;7.93;;;11.20;99.90;;;;;;10541150;28;20044;-54
2024/03/13 03:29:57;;;;;;;58.88;6.78;;;11.10;99.90;;;;;;10533708;28;20071;-59
2024/03/13 03:34:59;;;;;;;47.17;6.93;;;11.00;99.90;;;;;;10532014;28;20456;-57
2024/03/13 03:40:02;;;;;;;58.90;7.27;;;10.90;99.90;;;;;;10537517;28;20054;-57
2024/03/13 03:45:05;;;;;;;39.22;6.22;;;10.80;99.90;;;;;;10534450;28;20047;-59
2024/03/13 03:50:07;;;;;;;43.23;5.70;;;10.80;99.90;;;;;;10534255;28;20047;-59
2024/03/13 03:55:10;;;;;;;39.08;5.82;;;11.00;99.90;;;;;;10550075;28;20044;-58
2024/03/13 04:15:30;;;;;;;56.83;5.80;;;10.80;99.90;;;;;;10622216;27;20121;-57
2024/03/13 04:20:32;;;;;;;57.20;8.40;;;10.80;99.90;;;;;;10605439;27;20063;-59
2024/03/13 04:25:36;;;;;;;53.80;8.13;;;10.70;99.90;;;;;;10606595;27;20149;-58
2024/03/13 04:30:40;;;;;;;61.05;7.85;;;10.60;99.90;;;;;;10610073;27;20051;-58
2024/03/13 04:35:42;;;;;;;91.45;11.68;;;10.80;99.90;;;;;;10608086;27;20043;-58
2024/03/13 04:40:44;;;;;;;70.07;10.77;;;10.50;99.90;;;;;;10587134;27;20043;-57
2024/03/13 04:45:46;;;;;;;52.08;6.75;;;10.30;99.90;;;;;;10588442;27;20054;-56
2024/03/13 04:50:48;;;;;;;57.13;5.80;;;10.50;99.90;;;;;;10606849;27;20055;-58
2024/03/13 04:55:51;;;;;;;46.05;6.22;;;10.70;99.90;;;;;;10607993;27;20106;-59
2024/03/13 05:00:53;;;;;;;51.80;6.37;;;10.60;99.90;;;;;;10607444;27;20138;-59
2024/03/13 05:05:55;;;;;;;43.47;7.07;;;11.10;99.90;;;;;;10589269;27;20489;-58
2024/03/13 05:10:57;;;;;;;38.13;5.70;;;11.00;99.90;;;;;;10606663;27;20051;-55
2024/03/13 05:15:59;;;;;;;45.03;6.07;;;10.80;99.90;;;;;;10609031;27;20055;-59
2024/03/13 05:21:01;;;;;;;36.90;7.33;;;10.90;99.90;;;;;;10605089;27;20087;-57
2024/03/13 05:26:04;;;;;;;57.73;7.90;;;11.10;99.90;;;;;;10576530;27;20127;-58
2024/03/13 05:31:09;;;;;;;59.63;7.22;;;10.90;99.90;;;;;;10555928;27;20051;-59
2024/03/13 05:36:12;;;;;;;40.33;6.55;;;10.90;99.90;;;;;;10570546;27;20050;-56
2024/03/13 05:41:14;;;;;;;48.15;7.10;;;10.90;99.90;;;;;;10565018;27;20055;-58
2024/03/13 05:46:16;;;;;;;53.65;9.10;;;10.60;99.90;;;;;;10563546;27;20039;-57
2024/03/13 05:51:18;;;;;;;58.13;9.47;;;10.60;99.90;;;;;;10555389;27;20166;-57
2024/03/13 05:56:21;;;;;;;39.63;6.32;;;10.90;99.90;;;;;;10560167;27;20570;-58
2024/03/13 06:01:26;;;;;;;46.33;7.90;;;10.60;99.90;;;;;;10567744;27;20502;-57
2024/03/13 06:06:28;;;;;;;42.40;6.15;;;10.90;99.90;;;;;;10554902;27;20165;-58
2024/03/13 06:11:33;;;;;;;39.70;5.70;;;10.90;99.90;;;;;;10560376;27;20206;-59
2024/03/13 06:16:36;;;;;;;36.92;6.32;;;10.90;99.90;;;;;;10551699;27;20058;-57
2024/03/13 06:21:38;;;;;;;41.60;5.30;;;10.70;99.90;;;;;;10557829;27;20051;-56
2024/03/13 06:26:45;;;;;;;44.13;5.78;;;10.80;99.90;;;;;;10561155;27;20100;-59
2024/03/13 06:31:47;;;;;;;43.80;5.20;;;11.10;99.90;;;;;;10551181;27;20224;-59
2024/03/13 06:36:50;;;;;;;32.47;4.53;;;11.00;99.90;;;;;;10546893;27;20055;-59
2024/03/13 06:41:52;;;;;;;40.60;5.70;;;11.00;99.90;;;;;;10555909;27;20047;-59
2024/03/13 06:46:54;;;;;;;27.48;4.43;;;11.10;99.90;;;;;;10553385;27;20067;-59
2024/03/13 06:51:56;;;;;;;47.53;4.23;;;11.40;99.90;;;;;;10555281;27;20601;-59
2024/03/13 06:56:58;;;;;;;39.67;7.70;;;11.30;99.90;;;;;;10553078;27;20055;-57
2024/03/13 07:02:01;;;;;;;42.38;4.95;;;11.40;99.90;;;;;;10555682;27;20047;-57
2024/03/13 07:07:03;;;;;;;24.95;4.00;;;11.10;99.90;;;;;;10547554;27;20829;-59
2024/03/13 07:12:05;;;;;;;34.17;3.83;;;11.40;99.90;;;;;;10550669;27;20047;-59
2024/03/13 07:17:07;;;;;;;44.20;5.80;;;11.50;99.90;;;;;;10554250;27;20059;-58
2024/03/13 07:22:10;;;;;;;29.17;4.20;;;11.10;99.90;;;;;;10555828;27;20581;-59
2024/03/13 07:27:12;;;;;;;41.83;5.18;;;11.20;99.90;;;;;;10552363;27;20120;-59
2024/03/13 07:32:16;;;;;;;28.03;3.70;;;11.30;99.90;;;;;;10546879;27;20063;-58
2024/03/13 07:37:18;;;;;;;22.45;3.75;;;11.60;99.90;;;;;;10559198;27;20188;-58
2024/03/13 07:42:20;;;;;;;35.97;5.40;;;11.40;99.90;;;;;;10559480;27;20043;-60
2024/03/13 07:47:22;;;;;;;29.03;4.67;;;11.40;99.90;;;;;;10549598;27;20111;-59
2024/03/13 07:52:24;;;;;;;27.43;3.77;;;11.60;99.90;;;;;;10554624;27;20106;-59
2024/03/13 07:57:26;;;;;;;27.07;4.33;;;11.70;99.90;;;;;;10554917;27;20776;-58
2024/03/13 08:02:29;;;;;;;18.63;2.90;;;11.80;99.90;;;;;;10551417;27;20815;-58
2024/03/13 08:07:32;;;;;;;29.05;4.55;;;11.80;99.90;;;;;;10561649;27;20081;-62
2024/03/13 08:12:34;;;;;;;;;;;12.00;99.90;;;;;;10562793;28;20052;-58
2024/03/13 08:17:37;;;;;;;28.37;3.90;;;12.20;99.90;;;;;;10551413;28;19977;-58
2024/03/13 08:22:39;;;;;;;20.92;4.20;;;12.40;99.90;;;;;;10555762;28;20043;-55
2024/03/13 08:27:42;;;;;;;18.53;3.60;;;11.90;99.90;;;;;;10557105;28;21303;-57
2024/03/13 08:32:44;;;;;;;28.47;5.33;;;11.90;99.90;;;;;;10555029;28;20819;-58
2024/03/13 08:37:47;;;;;;;31.77;6.57;;;11.50;99.90;;;;;;10555283;28;20814;-59
2024/03/13 08:42:49;;;;;;;36.33;6.80;;;11.40;99.90;;;;;;10553174;28;20215;-58
2024/03/13 08:47:52;;;;;;;26.93;5.63;;;11.10;99.90;;;;;;10561003;28;20054;-59
2024/03/13 08:52:55;;;;;;;33.10;6.50;;;11.20;99.90;;;;;;10558038;28;20051;-56
2024/03/13 08:57:57;;;;;;;39.60;7.28;;;11.40;99.90;;;;;;10550064;27;20121;-58
2024/03/13 09:03:01;;;;;;;40.00;7.82;;;11.70;99.90;;;;;;10562741;27;20051;-57
2024/03/13 09:08:03;;;;;;;34.03;5.07;;;11.50;99.90;;;;;;10564354;27;20058;-58
2024/03/13 09:13:05;;;;;;;37.40;5.45;;;11.60;99.90;;;;;;10555753;27;20474;-58
2024/03/13 09:18:08;;;;;;;52.77;8.07;;;11.80;99.90;;;;;;10559210;27;20459;-58
2024/03/13 09:23:11;;;;;;;33.42;7.18;;;11.40;99.90;;;;;;10566949;27;20047;-58
2024/03/13 09:28:13;;;;;;;47.95;7.15;;;11.80;99.90;;;;;;10572678;27;20047;-57
2024/03/13 09:33:15;;;;;;;37.60;5.70;;;12.00;99.90;;;;;;10563108;27;20047;-57
2024/03/13 09:38:17;;;;;;;37.37;5.27;;;11.90;99.90;;;;;;10567727;27;20054;-57
2024/03/13 09:43:19;;;;;;;15.50;2.42;;;12.00;99.90;;;;;;10571266;27;20554;-58
2024/03/13 09:48:21;;;;;;;18.57;4.00;;;12.30;99.90;;;;;;10568942;27;20055;-56
2024/03/13 09:53:24;;;;;;;15.47;3.20;;;12.50;99.90;;;;;;10566080;27;20039;-55
2024/03/13 09:58:26;;;;;;;17.50;2.30;;;12.50;99.90;;;;;;10550286;27;20169;-58
2024/03/13 10:03:28;;;;;;;28.63;4.28;;;12.20;99.90;;;;;;10562870;27;20464;-55
2024/03/13 10:08:30;;;;;;;18.40;4.05;;;12.10;99.90;;;;;;10560451;27;20057;-59
2024/03/13 10:13:33;;;;;;;18.73;2.73;;;12.30;99.90;;;;;;10560216;27;20047;-58
2024/03/13 10:18:35;;;;;;;9.82;2.28;;;12.40;99.90;;;;;;10552689;27;20051;-58
2024/03/13 10:23:37;;;;;;;19.80;3.50;;;12.10;99.90;;;;;;10561289;27;20046;-59
2024/03/13 10:28:39;;;;;;;24.45;5.88;;;12.40;99.90;;;;;;10561018;27;20458;-56
2024/03/13 10:33:42;;;;;;;28.53;4.97;;;12.20;99.90;;;;;;10551098;27;20404;-56
2024/03/13 10:38:46;;;;;;;19.60;4.55;;;12.50;99.90;;;;;;10563635;27;20059;-59
2024/03/13 10:43:48;;;;;;;20.23;2.55;;;12.50;99.90;;;;;;10541800;27;20043;-58
2024/03/13 10:48:52;;;;;;;15.07;1.90;;;12.60;99.90;;;;;;10549269;27;20063;-58
2024/03/13 10:53:54;;;;;;;13.45;2.58;;;12.50;99.90;;;;;;10557796;27;20135;-60
2024/03/13 10:58:56;;;;;;;21.80;3.60;;;12.60;99.90;;;;;;10555367;27;20051;-58
2024/03/13 11:04:00;;;;;;;22.67;2.70;;;12.40;99.90;;;;;;10560818;27;20043;-57
2024/03/13 11:09:03;;;;;;;15.52;2.97;;;12.70;99.90;;;;;;10555486;27;20098;-57
2024/03/13 11:14:06;;;;;;;23.05;3.50;;;12.70;99.90;;;;;;10558924;27;20791;-58
2024/03/13 11:19:08;;;;;;;11.68;2.33;;;12.60;99.90;;;;;;10552353;27;20639;-59
2024/03/13 11:24:11;;;;;;;18.98;2.70;;;12.70;99.90;;;;;;10561110;27;20134;-59
2024/03/13 11:29:13;;;;;;;20.00;3.37;;;12.40;99.90;;;;;;10555022;27;20570;-59
2024/03/13 11:34:16;;;;;;;20.10;3.03;;;12.20;99.90;;;;;;10554107;27;20082;-56
2024/03/13 11:39:21;;;;;;;26.70;3.63;;;12.20;99.90;;;;;;10549252;27;20051;-60
2024/03/13 11:44:23;;;;;;;20.33;2.72;;;12.20;99.90;;;;;;10555450;27;20122;-58
2024/03/13 11:49:28;;;;;;;21.95;2.33;;;12.20;99.90;;;;;;10556291;27;20131;-58
2024/03/13 11:54:32;;;;;;;15.27;2.40;;;12.30;99.90;;;;;;10549376;27;20079;-58
2024/03/13 11:59:41;;;;;;;13.43;1.70;;;12.20;99.90;;;;;;10540619;27;20043;-60
2024/03/13 12:04:44;;;;;;;13.85;2.05;;;12.30;99.90;;;;;;10558967;27;20044;-58
2024/03/13 12:09:46;;;;;;;15.80;2.10;;;11.90;99.90;;;;;;10554022;28;20920;-58
2024/03/13 12:14:48;;;;;;;14.20;2.60;;;12.00;99.90;;;;;;10536013;28;20047;-57
2024/03/13 12:19:51;;;;;;;10.50;1.90;;;12.00;99.90;;;;;;10546850;28;20055;-58
2024/03/13 12:24:53;;;;;;;4.53;1.43;;;12.20;99.90;;;;;;10551265;28;20067;-59
2024/03/13 12:29:55;;;;;;;10.32;1.58;;;12.60;99.90;;;;;;10547689;28;20051;-58
2024/03/13 12:34:57;;;;;;;14.90;1.80;;;12.40;99.90;;;;;;10552234;27;20105;-58
2024/03/13 12:39:59;;;;;;;7.80;1.13;;;12.50;99.90;;;;;;10547478;27;20480;-58
2024/03/13 12:45:04;;;;;;;6.60;1.20;;;12.40;99.90;;;;;;10543046;27;20112;-59
2024/03/13 12:50:09;;;;;;;6.28;1.38;;;12.80;99.90;;;;;;10541125;27;20132;-58
2024/03/13 12:55:12;;;;;;;8.32;2.38;;;12.50;99.90;;;;;;10564056;27;20062;-58
2024/03/13 13:00:18;;;;;;;7.15;1.48;;;12.70;99.90;;;;;;10550295;27;20103;-58
2024/03/13 13:05:20;;;;;;;12.98;3.03;;;12.40;99.90;;;;;;10566626;27;20055;-58
2024/03/13 13:10:24;;;;;;;12.97;2.60;;;12.60;99.90;;;;;;10553534;27;20063;-60
2024/03/13 13:15:27;;;;;;;10.60;1.95;;;12.50;99.90;;;;;;10555755;27;20399;-58
2024/03/13 13:20:33;;;;;;;7.10;2.38;;;12.80;99.90;;;;;;10559508;27;20485;-58
2024/03/13 13:25:35;;;;;;;9.35;2.30;;;13.00;99.90;;;;;;10568095;27;20054;-61
2024/03/13 13:30:40;;;;;;;4.93;1.60;;;12.80;99.90;;;;;;10564065;27;20123;-56
2024/03/13 13:35:43;;;;;;;8.75;2.03;;;13.10;99.90;;;;;;10555544;27;20130;-58
2024/03/13 13:40:45;;;;;;;7.22;1.38;;;13.30;99.90;;;;;;10560106;27;20954;-59
2024/03/13 13:45:47;;;;;;;9.10;1.67;;;13.10;99.90;;;;;;10558904;27;20051;-56
2024/03/13 13:50:50;;;;;;;7.90;1.90;;;13.20;99.90;;;;;;10564453;27;20403;-57
2024/03/13 13:55:52;;;;;;;11.65;1.88;;;14.10;99.90;;;;;;10561582;27;20043;-57
2024/03/13 14:00:54;;;;;;;8.73;1.30;;;14.80;99.90;;;;;;10554084;27;20094;-55
2024/03/13 14:05:56;;;;;;;14.68;2.03;;;15.00;99.90;;;;;;10555599;27;20174;-59
2024/03/13 14:11:00;;;;;;;9.93;2.43;;;15.00;99.90;;;;;;10560786;27;20080;-57
2024/03/13 14:16:02;;;;;;;11.98;2.10;;;15.30;99.90;;;;;;10557644;27;20134;-58
2024/03/13 14:21:04;;;;;;;8.77;2.27;;;15.60;99.90;;;;;;10555235;27;20048;-59
2024/03/13 14:26:06;;;;;;;14.40;1.73;;;15.80;99.90;;;;;;10557304;27;20991;-58
2024/03/13 14:31:10;;;;;;;9.40;1.55;;;15.50;99.90;;;;;;10559627;27;20059;-59
2024/03/13 14:36:12;;;;;;;18.52;2.55;;;15.30;99.90;;;;;;10552615;27;21274;-58
2024/03/13 14:41:14;;;;;;;11.82;2.13;;;14.70;99.90;;;;;;10541668;27;20052;-60
2024/03/13 14:46:19;;;;;;;11.70;1.97;;;14.80;99.90;;;;;;10554131;27;20054;-59
2024/03/13 14:51:21;;;;;;;11.68;1.98;;;14.20;99.90;;;;;;10561056;27;20047;-58
2024/03/13 14:56:23;;;;;;;9.20;1.38;;;14.50;99.90;;;;;;10553590;27;20047;-58
2024/03/13 15:01:25;;;;;;;12.45;2.13;;;15.10;99.90;;;;;;10539066;27;22969;-59
2024/03/13 15:06:28;;;;;;;11.27;1.80;;;14.60;99.90;;;;;;10557303;27;20051;-59
2024/03/13 15:11:30;;;;;;;14.15;2.63;;;14.40;99.90;;;;;;10552242;27;20493;-58
2024/03/13 15:16:33;;;;;;;11.07;1.67;;;14.40;99.90;;;;;;10550897;27;20048;-59
2024/03/13 15:21:35;;;;;;;13.70;2.28;;;14.40;99.90;;;;;;10538602;27;20055;-59
2024/03/13 15:26:37;;;;;;;14.33;2.17;;;14.00;99.90;;;;;;10551195;27;20055;-58
2024/03/13 15:31:39;;;;;;;14.77;2.10;;;14.20;99.90;;;;;;10540399;27;20055;-58
2024/03/13 15:36:42;;;;;;;11.17;1.77;;;14.10;99.90;;;;;;10549958;27;20073;-57
2024/03/13 15:41:44;;;;;;;11.65;1.63;;;13.50;99.90;;;;;;10544469;27;20114;-57
2024/03/13 15:46:47;;;;;;;15.98;1.95;;;13.60;99.90;;;;;;10541508;27;20248;-58
2024/03/13 15:51:49;;;;;;;5.30;1.08;;;13.40;99.90;;;;;;10546462;27;20059;-57
2024/03/13 15:56:51;;;;;;;5.50;1.00;;;13.40;99.90;;;;;;10544139;27;20138;-57
2024/03/13 16:01:53;;;;;;;8.23;1.40;;;13.70;99.90;;;;;;10540486;27;20080;-57
2024/03/13 16:06:55;;;;;;;10.93;1.40;;;13.50;99.90;;;;;;10525205;27;20047;-57
2024/03/13 16:12:02;;;;;;;12.87;1.70;;;13.40;99.90;;;;;;10523219;28;20111;-59
2024/03/13 16:17:04;;;;;;;9.88;2.38;;;13.30;99.90;;;;;;10542577;28;20043;-58
2024/03/13 16:22:07;;;;;;;18.73;2.47;;;13.20;99.90;;;;;;10535208;28;20076;-57
2024/03/13 16:27:09;;;;;;;9.35;1.95;;;12.70;99.90;;;;;;10537210;28;20092;-58
2024/03/13 16:32:17;;;;;;;14.00;1.60;;;12.90;99.90;;;;;;10540025;28;20221;-58
2024/03/13 16:37:20;;;;;;;13.40;2.40;;;12.60;99.90;;;;;;10538347;28;20047;-57
2024/03/13 16:42:22;;;;;;;11.57;2.28;;;12.70;99.90;;;;;;10538118;28;20426;-56
2024/03/13 16:47:24;;;;;;;6.43;1.57;;;12.60;99.90;;;;;;10543719;28;20102;-58
2024/03/13 16:52:28;;;;;;;8.47;1.60;;;12.50;99.90;;;;;;10546655;28;20063;-58
2024/03/13 16:57:30;;;;;;;8.88;1.73;;;12.70;99.90;;;;;;10542364;28;20082;-58
2024/03/13 17:02:32;;;;;;;11.77;2.30;;;12.30;99.90;;;;;;10538601;28;20055;-58
2024/03/13 17:07:34;;;;;;;6.80;1.80;;;12.20;99.90;;;;;;10541441;28;20078;-58
2024/03/13 17:12:36;;;;;;;5.17;1.57;;;12.70;99.90;;;;;;10546809;28;20064;-56
2024/03/13 17:17:39;;;;;;;5.60;1.23;;;12.90;99.90;;;;;;10520054;28;20059;-57
2024/03/13 17:22:41;;;;;;;10.40;2.25;;;12.60;99.90;;;;;;10552939;27;20875;-58
2024/03/13 17:27:43;;;;;;;9.03;2.03;;;12.50;99.90;;;;;;10548241;27;20435;-58
2024/03/13 17:32:45;;;;;;;13.63;2.63;;;12.40;99.90;;;;;;10556603;27;20077;-57
2024/03/13 17:37:49;;;;;;;20.10;2.73;;;12.10;99.90;;;;;;10561976;27;20826;-58
2024/03/13 17:42:51;;;;;;;10.35;2.30;;;12.40;99.90;;;;;;10558708;27;20063;-56
2024/03/13 17:47:56;;;;;;;9.97;2.77;;;12.30;99.90;;;;;;10560015;27;20047;-55
2024/03/13 17:52:58;;;;;;;8.98;1.00;;;12.10;99.90;;;;;;10560547;27;20447;-56
2024/03/13 17:58:00;;;;;;;4.72;1.45;;;12.30;99.90;;;;;;10553093;27;20710;-58
2024/03/13 18:03:03;;;;;;;7.53;1.03;;;12.40;99.90;;;;;;10559689;27;20903;-58
2024/03/13 18:08:06;;;;;;;3.83;1.35;;;12.60;99.90;;;;;;10559984;27;20054;-58
2024/03/13 18:13:10;;;;;;;7.43;1.20;;;12.80;99.90;;;;;;10557334;27;20866;-57
2024/03/13 18:18:12;;;;;;;9.05;1.02;;;12.50;99.90;;;;;;10542849;27;20047;-56
2024/03/13 18:23:14;;;;;;;6.07;1.52;;;12.50;99.90;;;;;;10556468;27;20673;-57
2024/03/13 18:28:16;;;;;;;6.67;2.03;;;12.80;99.90;;;;;;10560216;27;20059;-60
2024/03/13 18:33:19;;;;;;;7.57;1.80;;;12.50;99.90;;;;;;10559406;27;20249;-60
2024/03/13 18:38:21;;;;;;;7.20;1.70;;;12.40;99.90;;;;;;10561559;27;20043;-59
2024/03/13 18:43:23;;;;;;;10.03;2.40;;;12.50;99.90;;;;;;10548795;27;20790;-56
2024/03/13 18:48:25;;;;;;;9.27;2.83;;;12.20;99.90;;;;;;10560267;27;20051;-60
2024/03/13 18:53:28;;;;;;;4.57;2.08;;;12.20;99.90;;;;;;10556575;27;21258;-58
2024/03/13 18:58:30;;;;;;;7.95;2.25;;;12.00;99.90;;;;;;10554066;27;20047;-55
2024/03/13 19:03:33;;;;;;;5.75;2.35;;;12.20;99.90;;;;;;10541813;27;20640;-59
2024/03/13 19:08:35;;;;;;;3.92;2.10;;;12.00;99.90;;;;;;10562118;27;20051;-56
2024/03/13 19:13:37;;;;;;;6.03;2.17;;;12.10;99.90;;;;;;10562306;27;20086;-59
2024/03/13 19:18:39;;;;;;;12.88;2.58;;;12.00;99.90;;;;;;10559479;27;20047;-58
2024/03/13 19:23:41;;;;;;;7.10;2.20;;;11.90;99.90;;;;;;10558663;27;20083;-58
2024/03/13 19:28:44;;;;;;;4.77;2.13;;;11.90;99.90;;;;;;10558042;27;20054;-58
2024/03/13 19:33:46;;;;;;;6.72;1.90;;;11.80;99.90;;;;;;10555622;27;20047;-56
2024/03/13 19:38:48;;;;;;;5.88;1.80;;;11.90;99.90;;;;;;10554142;27;20614;-58
2024/03/13 19:43:50;;;;;;;4.73;2.07;;;12.80;99.90;;;;;;10540810;27;20077;-55
2024/03/13 19:48:52;;;;;;;6.77;1.90;;;12.50;99.90;;;;;;10560744;27;20112;-57
2024/03/13 19:53:54;;;;;;;11.73;2.83;;;12.30;99.90;;;;;;10559890;27;20185;-55
2024/03/13 19:58:56;;;;;;;6.03;1.80;;;12.20;99.90;;;;;;10544333;27;20051;-59
2024/03/13 20:03:58;;;;;;;2.80;1.75;;;12.70;99.90;;;;;;10548621;27;20477;-58
2024/03/13 20:09:00;;;;;;;6.13;2.30;;;12.60;99.90;;;;;;10547826;27;20077;-58
2024/03/13 20:14:03;;;;;;;5.27;1.80;;;12.40;99.90;;;;;;10548378;27;20086;-58
2024/03/13 20:19:05;;;;;;;6.78;1.90;;;12.80;99.90;;;;;;10545228;28;20288;-58
2024/03/13 20:24:09;;;;;;;4.37;2.27;;;12.80;99.90;;;;;;10550785;28;20055;-57
2024/03/13 20:29:13;;;;;;;5.38;2.45;;;12.70;99.90;;;;;;10551665;28;20080;-59
2024/03/13 20:34:15;;;;;;;4.32;2.33;;;12.60;99.90;;;;;;10552830;28;20047;-59
2024/03/13 20:39:17;;;;;;;7.20;2.88;;;12.60;99.90;;;;;;10534533;28;20065;-56
2024/03/13 20:44:20;;;;;;;9.30;2.70;;;12.80;99.90;;;;;;10545579;28;20067;-55
2024/03/13 20:49:22;;;;;;;9.43;2.90;;;12.20;99.90;;;;;;10550372;28;20673;-56
2024/03/13 20:54:24;;;;;;;7.60;2.70;;;12.60;99.90;;;;;;10536269;27;20050;-57
2024/03/13 20:59:26;;;;;;;6.70;2.65;;;12.10;99.90;;;;;;10555678;27;20046;-56
2024/03/13 21:04:28;;;;;;;4.50;2.43;;;12.80;99.90;;;;;;10561670;27;20047;-58
2024/03/13 21:09:30;;;;;;;8.47;2.77;;;12.30;99.90;;;;;;10563508;27;20066;-58
2024/03/13 21:14:33;;;;;;;5.17;2.50;;;12.40;99.90;;;;;;10564809;27;20058;-56
2024/03/13 21:19:36;;;;;;;6.55;2.72;;;12.30;99.90;;;;;;10554673;27;20051;-57
2024/03/13 21:24:38;;;;;;;9.50;2.58;;;12.30;99.90;;;;;;10571709;27;20052;-58
2024/03/13 21:29:40;;;;;;;5.70;2.40;;;12.30;99.90;;;;;;10561424;27;20090;-58
2024/03/13 21:34:42;;;;;;;6.63;2.87;;;12.50;99.90;;;;;;10562930;27;20039;-57
2024/03/13 21:39:44;;;;;;;5.93;2.57;;;12.50;99.90;;;;;;10566358;27;20056;-59
2024/03/13 21:44:46;;;;;;;11.00;3.67;;;12.40;99.90;;;;;;10557126;27;20085;-56
2024/03/13 21:49:49;;;;;;;9.20;3.67;;;12.30;99.90;;;;;;10573429;27;20047;-58
2024/03/13 21:54:51;;;;;;;6.32;3.17;;;12.10;99.90;;;;;;10545329;27;21189;-56
2024/03/13 21:59:53;;;;;;;5.37;2.60;;;12.30;99.90;;;;;;10563885;27;20826;-58
2024/03/13 22:04:55;;;;;;;8.82;3.22;;;12.80;99.90;;;;;;10567165;27;23315;-56
2024/03/13 22:09:57;;;;;;;8.40;2.97;;;12.40;99.90;;;;;;10568552;27;20819;-57
2024/03/13 22:15:04;;;;;;;3.57;2.60;;;12.30;99.90;;;;;;10559340;27;20479;-57
2024/03/13 22:20:08;;;;;;;5.05;3.00;;;12.30;99.90;;;;;;10568552;27;20047;-59
2024/03/13 22:25:10;;;;;;;6.10;2.50;;;12.40;99.90;;;;;;10548292;27;20058;-57
2024/03/13 22:30:12;;;;;;;7.30;3.30;;;12.60;99.90;;;;;;10563012;27;20051;-57
2024/03/13 22:35:14;;;;;;;10.45;3.45;;;12.30;99.90;;;;;;10556494;27;20078;-57
2024/03/13 22:40:19;;;;;;;3.33;2.40;;;12.30;99.90;;;;;;10559783;27;20056;-58
2024/03/13 22:45:22;;;;;;;4.07;2.92;;;12.20;99.90;;;;;;10565056;27;20051;-57
2024/03/13 22:50:24;;;;;;;10.77;3.97;;;12.40;99.90;;;;;;10558160;27;20051;-59
2024/03/13 22:55:26;;;;;;;12.53;4.33;;;12.40;99.90;;;;;;10537554;27;20128;-58
2024/03/13 23:00:39;;;;;;;9.47;3.87;;;12.50;99.90;;;;;;10557541;27;20537;-57
2024/03/13 23:05:42;;;;;;;6.43;3.40;;;12.80;99.90;;;;;;10527387;27;20044;-58
2024/03/13 23:10:44;;;;;;;6.70;3.88;;;13.20;99.90;;;;;;10561588;27;20566;-57
2024/03/13 23:15:46;;;;;;;10.07;3.57;;;13.70;99.90;;;;;;10558728;27;20051;-58
2024/03/13 23:20:48;;;;;;;6.77;3.60;;;14.20;99.90;;;;;;10558224;27;20086;-58
2024/03/13 23:25:51;;;;;;;6.90;3.97;;;14.50;99.90;;;;;;10553448;27;20066;-58
2024/03/13 23:30:53;;;;;;;7.20;4.38;;;14.70;99.90;;;;;;10565756;27;20142;-58
2024/03/13 23:35:55;;;;;;;6.07;4.13;;;14.80;99.90;;;;;;10540723;27;20109;-58
2024/03/13 23:41:02;;;;;;;10.18;5.40;;;15.10;99.90;;;;;;10564556;27;20102;-57
2024/03/13 23:46:05;;;;;;;6.88;5.90;;;14.30;99.90;;;;;;10557866;27;20051;-59
2024/03/13 23:51:08;;;;;;;6.95;5.00;;;14.40;99.90;;;;;;10563712;27;20054;-57
2024/03/13 23:56:11;;;;;;;;;;;14.30;99.90;;;;;;10561858;27;20157;-59
